Time;durP1;ratioP1;P1;durP2;ratioP2;P2;SDS_P1;SDS_P2;PMS_P1;PMS_P2;Temp;Humidity;BMP_temperature;BMP_pressure;BME280_temperature;BME280_humidity;BME280_pressure;Samples;Min_cycle;Max_cycle;Signal;HPM_P1;HPM_P2
2021/11/15 00:01:15;;;;;;;84.05;38.00;;;;;;;5.01;93.92;101692.83;1653194;86;25479;-65
2021/11/15 00:03:44;;;;;;;75.97;36.68;;;;;;;5.02;93.91;101686.94;1682176;85;25829;-64
2021/11/15 00:06:11;;;;;;;82.95;35.28;;;;;;;5.01;93.93;101683.45;1653070;86;25657;-64
2021/11/15 00:08:38;;;;;;;77.45;35.63;;;;;;;5.03;93.97;101687.23;1682095;85;27452;-64
2021/11/15 00:11:05;;;;;;;75.22;34.78;;;;;;;5.00;94.01;101685.83;1653079;86;25472;-65
2021/11/15 00:13:31;;;;;;;75.22;34.38;;;;;;;5.01;94.07;101691.49;1681956;85;25732;-64
2021/11/15 00:15:59;;;;;;;80.67;34.63;;;;;;;5.02;94.12;101688.27;1653069;86;26147;-65
2021/11/15 00:18:25;;;;;;;74.70;34.23;;;;;;;5.02;94.19;101693.64;1682145;85;25683;-64
2021/11/15 00:20:52;;;;;;;69.70;34.20;;;;;;;5.02;94.29;101698.50;1652939;86;26713;-65
2021/11/15 00:23:19;;;;;;;71.57;33.10;;;;;;;5.03;94.26;101697.96;1682047;85;25828;-65
2021/11/15 00:25:45;;;;;;;72.58;33.02;;;;;;;5.04;94.32;101700.41;1652933;86;25626;-64
2021/11/15 00:28:12;;;;;;;73.95;33.13;;;;;;;5.05;94.31;101702.56;1681938;85;25795;-65
2021/11/15 00:30:39;;;;;;;66.42;31.68;;;;;;;5.05;94.37;101711.41;1653089;86;25436;-65
2021/11/15 00:33:10;;;;;;;70.30;31.33;;;;;;;5.05;94.39;101707.92;1682180;85;27402;-65
2021/11/15 00:35:39;;;;;;;62.75;30.50;;;;;;;5.06;94.44;101705.54;1652735;86;25734;-65
2021/11/15 00:38:06;;;;;;;62.45;30.00;;;;;;;5.07;94.45;101708.49;1682475;85;25789;-65
2021/11/15 00:40:33;;;;;;;62.10;28.25;;;;;;;5.07;94.41;101698.30;1653015;86;25752;-64
2021/11/15 00:42:59;;;;;;;54.03;27.45;;;;;;;5.07;94.46;101700.45;1681972;85;25620;-64
2021/11/15 00:45:26;;;;;;;58.05;27.75;;;;;;;5.07;94.50;101701.78;1652979;86;27355;-64
2021/11/15 00:47:52;;;;;;;52.95;25.35;;;;;;;5.08;94.53;101707.45;1682032;85;25647;-64
2021/11/15 00:50:21;;;;;;;52.25;26.02;;;;;;;5.10;94.65;101709.90;1652974;86;25648;-65
2021/11/15 00:52:52;;;;;;;48.50;24.65;;;;;;;5.10;94.67;101701.32;1682190;85;34438;-65
2021/11/15 00:55:20;;;;;;;51.85;23.40;;;;;;;5.11;94.70;101708.83;1621892;86;25580;-65
2021/11/15 00:57:47;;;;;;;44.42;21.95;;;;;;;5.10;94.57;101709.37;1621537;87;27293;-65
2021/11/15 01:00:19;;;;;;;42.38;19.90;;;;;;;5.08;94.48;101714.16;1680114;85;25699;-65
2021/11/15 01:02:46;;;;;;;41.70;20.80;;;;;;;5.05;94.65;101707.92;1680218;85;25594;-63
2021/11/15 01:05:14;;;;;;;40.15;21.05;;;;;;;5.04;94.65;101708.99;1679849;85;27750;-63
2021/11/15 01:07:41;;;;;;;40.67;20.43;;;;;;;5.03;94.79;101710.03;1680170;85;25406;-63
2021/11/15 01:10:11;;;;;;;41.95;20.32;;;;;;;5.02;94.80;101712.41;1680184;85;29544;-63
2021/11/15 01:12:38;;;;;;;45.73;21.75;;;;;;;5.03;94.85;101711.37;1679838;85;26108;-63
2021/11/15 01:15:09;;;;;;;42.98;20.43;;;;;;;5.02;94.93;101715.93;1680178;85;25661;-65
2021/11/15 01:17:36;;;;;;;40.10;19.67;;;;;;;5.01;95.03;101714.29;1680100;85;25627;-65
2021/11/15 01:20:10;;;;;;;41.23;20.15;;;;;;;5.02;95.09;101712.41;1680001;85;25735;-66
2021/11/15 01:22:37;;;;;;;47.90;19.48;;;;;;;5.01;95.10;101715.63;1680144;85;27431;-64
2021/11/15 01:25:06;;;;;;;46.35;20.35;;;;;;;5.00;95.10;101723.38;1680023;85;25731;-65
2021/11/15 01:27:32;;;;;;;37.80;19.92;;;;;;;5.00;95.21;101728.73;1680111;84;32563;-64
2021/11/15 01:29:59;;;;;;;39.55;18.23;;;;;;;5.00;95.23;101722.03;1680106;85;25617;-64
2021/11/15 01:32:26;;;;;;;40.55;19.82;;;;;;;5.00;95.21;101726.05;1680158;85;25418;-64
2021/11/15 01:34:52;;;;;;;44.83;20.12;;;;;;;5.01;95.32;101717.50;1679859;85;27275;-64
2021/11/15 01:37:19;;;;;;;53.45;19.75;;;;;;;5.00;95.23;101726.05;1680121;85;25572;-64
2021/11/15 01:39:46;;;;;;;47.67;20.05;;;;;;;5.00;95.23;101729.27;1680092;85;25678;-64
2021/11/15 01:42:12;;;;;;;46.02;20.37;;;;;;;5.00;95.31;101721.23;1679879;85;25733;-64
2021/11/15 01:44:39;;;;;;;38.90;18.57;;;;;;;5.01;95.26;101722.87;1680068;85;25610;-64
2021/11/15 01:47:06;;;;;;;49.58;20.32;;;;;;;5.01;95.34;101734.94;1680099;85;27316;-64
2021/11/15 01:49:32;;;;;;;49.48;20.35;;;;;;;5.00;95.25;101735.97;1654958;85;25581;-64
2021/11/15 01:51:59;;;;;;;42.50;18.95;;;;;;;4.97;95.23;101725.72;1668849;86;25704;-64
2021/11/15 01:54:28;;;;;;;44.58;19.92;;;;;;;4.97;95.25;101729.73;1710765;82;25734;-65
2021/11/15 01:56:55;;;;;;;40.35;18.70;;;;;;;4.96;95.35;101726.25;1716910;83;25562;-65
2021/11/15 01:59:22;;;;;;;47.78;20.12;;;;;;;4.97;95.39;101722.53;1717074;83;28317;-65
2021/11/15 02:01:49;;;;;;;50.43;19.42;;;;;;;4.98;95.46;101728.16;1716950;83;25690;-65
2021/11/15 02:04:16;;;;;;;49.93;20.97;;;;;;;4.99;95.38;101731.68;1716769;83;25792;-65
2021/11/15 02:06:42;;;;;;;50.92;20.72;;;;;;;4.98;95.37;101729.50;1716899;83;25624;-65
2021/11/15 02:09:10;;;;;;;59.08;21.87;;;;;;;4.98;95.31;101734.87;1695203;83;25773;-65
2021/11/15 02:11:36;;;;;;;53.83;20.30;;;;;;;4.97;95.33;101735.09;1710711;83;27043;-65
2021/11/15 02:14:04;;;;;;;56.08;21.10;;;;;;;4.95;95.30;101733.99;1716928;83;25776;-65
2021/11/15 02:16:31;;;;;;;57.95;20.97;;;;;;;4.95;95.31;101738.02;1716988;83;25662;-65
2021/11/15 02:18:58;;;;;;;56.75;21.87;;;;;;;4.95;95.37;101739.89;1716769;83;25907;-65
2021/11/15 02:21:25;;;;;;;56.58;21.60;;;;;;;4.92;95.29;101736.33;1717132;83;25761;-65
2021/11/15 02:23:52;;;;;;;54.80;20.92;;;;;;;4.93;95.38;101736.09;1717021;83;27290;-65
2021/11/15 02:26:22;;;;;;;67.65;22.77;;;;;;;4.91;95.34;101734.72;1716636;83;25600;-65
2021/11/15 02:28:52;;;;;;;57.60;22.67;;;;;;;4.91;95.44;101732.04;1717027;83;25678;-64
2021/11/15 02:31:23;;;;;;;59.90;21.73;;;;;;;4.91;95.43;101747.59;1717041;83;25708;-64
2021/11/15 02:33:53;;;;;;;59.98;22.90;;;;;;;4.89;95.32;101738.14;1716838;83;25406;-65
2021/11/15 02:36:23;;;;;;;50.65;22.15;;;;;;;4.88;95.39;101736.53;1717167;83;33256;-64
2021/11/15 02:38:52;;;;;;;57.33;22.50;;;;;;;4.89;95.42;101748.86;1716932;83;27141;-63
2021/11/15 02:41:21;;;;;;;62.17;24.47;;;;;;;4.86;95.46;101746.95;1715061;83;25797;-64
2021/11/15 02:43:48;;;;;;;64.30;24.07;;;;;;;4.87;95.58;101751.80;1715960;83;25590;-64
2021/11/15 02:46:15;;;;;;;58.85;23.12;;;;;;;4.89;95.66;101747.02;1717172;83;25665;-64
2021/11/15 02:48:42;;;;;;;62.88;23.30;;;;;;;4.91;95.67;101754.30;1716917;83;27343;-64
2021/11/15 02:51:10;;;;;;;66.65;23.80;;;;;;;4.89;95.58;101749.70;1717165;83;25449;-64
2021/11/15 02:53:37;;;;;;;57.88;23.02;;;;;;;4.89;95.57;101749.70;1717060;83;25240;-64
2021/11/15 02:56:04;;;;;;;61.65;23.60;;;;;;;4.91;95.61;101750.81;1716901;83;25636;-65
2021/11/15 02:58:31;;;;;;;71.75;25.80;;;;;;;4.89;95.49;101756.91;1717189;83;25482;-66
2021/11/15 03:01:03;;;;;;;63.38;24.35;;;;;;;4.88;95.48;101756.64;1717196;83;27419;-64
2021/11/15 03:03:29;;;;;;;64.42;23.07;;;;;;;4.88;95.62;101761.46;1716811;83;25730;-65
2021/11/15 03:05:57;;;;;;;59.83;22.98;;;;;;;4.87;95.58;101759.84;1717101;83;25688;-65
2021/11/15 03:08:25;;;;;;;70.03;26.68;;;;;;;4.89;95.71;101759.59;1717188;83;25683;-65
2021/11/15 03:10:58;;;;;;;73.05;26.05;;;;;;;4.88;95.58;101768.70;1716983;83;25640;-65
2021/11/15 03:13:24;;;;;;;62.25;24.20;;;;;;;4.85;95.50;101763.27;1717250;83;27399;-65
2021/11/15 03:15:54;;;;;;;67.75;26.97;;;;;;;4.84;95.56;101761.12;1717006;83;25745;-65
2021/11/15 03:18:28;;;;;;;71.75;26.27;;;;;;;4.84;95.57;101764.34;1717036;83;25578;-64
2021/11/15 03:21:05;;;;;;;71.53;26.93;;;;;;;4.81;95.51;101762.11;1716631;83;26172;-66
2021/11/15 03:23:36;;;;;;;74.82;27.37;;;;;;;4.80;95.61;101761.31;1717194;83;25626;-66
2021/11/15 03:26:03;;;;;;;72.97;26.62;;;;;;;4.78;95.59;101767.41;1716507;82;27397;-66
2021/11/15 03:28:37;;;;;;;63.17;26.20;;;;;;;4.77;95.68;101764.45;1717071;83;25394;-66
2021/11/15 03:31:09;;;;;;;80.62;27.85;;;;;;;4.80;95.77;101769.86;1717237;83;25674;-64
2021/11/15 03:33:38;;;;;;;77.30;26.65;;;;;;;4.80;95.79;101769.86;1716855;83;25697;-66
2021/11/15 03:36:09;;;;;;;77.05;28.17;;;;;;;4.77;95.74;101771.16;1717450;83;25414;-66
2021/11/15 03:38:38;;;;;;;68.62;28.35;;;;;;;4.76;95.63;101773.53;1717158;83;27336;-65
2021/11/15 03:41:05;;;;;;;72.82;29.48;;;;;;;4.76;95.75;101775.41;1716881;83;25750;-65
2021/11/15 03:43:32;;;;;;;84.52;30.65;;;;;;;4.78;95.82;101777.32;1717169;83;25570;-65
2021/11/15 03:46:00;;;;;;;77.62;30.37;;;;;;;4.78;95.84;101781.34;1717065;83;25620;-65
2021/11/15 03:48:26;;;;;;;81.70;29.82;;;;;;;4.77;95.80;101779.73;1716969;83;25725;-65
2021/11/15 03:50:56;;;;;;;83.50;29.50;;;;;;;4.76;95.69;101777.55;1717083;83;27398;-65
2021/11/15 03:53:30;;;;;;;81.85;30.25;;;;;;;4.75;95.60;101784.48;1717231;83;25552;-64
2021/11/15 03:55:57;;;;;;;77.60;28.85;;;;;;;4.72;95.62;101780.95;1718678;83;25686;-64
2021/11/15 03:58:24;;;;;;;77.53;31.50;;;;;;;4.72;95.75;101780.95;1719442;83;26527;-66
2021/11/15 04:00:51;;;;;;;81.45;30.95;;;;;;;4.71;95.80;101778.78;1719516;83;25752;-66
2021/11/15 04:03:28;;;;;;;91.00;33.83;;;;;;;4.72;95.91;101784.44;1719250;83;27445;-64
2021/11/15 04:05:57;;;;;;;87.75;32.13;;;;;;;4.70;95.77;101785.20;1697726;83;25687;-64
2021/11/15 04:08:19;;;;;;;83.97;31.52;;;;;;;4.71;95.95;101790.84;1719630;83;25658;-64
2021/11/15 04:10:47;;;;;;;81.12;31.50;;;;;;;4.69;95.86;101790.27;1719160;83;26179;-64
2021/11/15 04:13:27;;;;;;;87.17;32.45;;;;;;;4.70;95.86;101793.25;1719511;83;25469;-64
2021/11/15 04:15:59;;;;;;;88.00;32.93;;;;;;;4.71;95.89;101792.72;1719418;83;27348;-64
2021/11/15 04:18:30;;;;;;;92.60;33.40;;;;;;;4.71;95.91;101785.48;1719137;83;25637;-64
2021/11/15 04:20:59;;;;;;;92.17;34.13;;;;;;;4.71;95.91;101794.86;1719451;83;25805;-64
2021/11/15 04:23:26;;;;;;;94.62;34.38;;;;;;;4.72;95.99;101796.50;1719465;83;26299;-64
2021/11/15 04:25:53;;;;;;;99.15;35.33;;;;;;;4.72;95.95;101791.14;1719091;83;25674;-64
2021/11/15 04:28:20;;;;;;;99.75;33.73;;;;;;;4.73;95.95;101791.95;1719586;83;28136;-66
2021/11/15 04:30:47;;;;;;;95.75;35.85;;;;;;;4.72;95.84;101790.34;1719314;83;25902;-64
2021/11/15 04:33:14;;;;;;;104.97;35.25;;;;;;;4.72;95.91;101795.70;1719241;83;25572;-64
2021/11/15 04:35:40;;;;;;;97.15;37.45;;;;;;;4.74;96.05;101801.10;1719455;83;25661;-64
2021/11/15 04:38:08;;;;;;;107.15;36.95;;;;;;;4.77;96.06;101801.17;1719460;83;25735;-64
2021/11/15 04:40:37;;;;;;;98.95;35.90;;;;;;;4.76;95.89;101800.34;1719193;83;27344;-64
2021/11/15 04:43:05;;;;;;;108.05;37.50;;;;;;;4.75;95.78;101801.91;1702245;83;25672;-64
2021/11/15 04:45:31;;;;;;;102.02;35.17;;;;;;;4.75;95.73;101796.05;1719418;83;25642;-64
2021/11/15 04:47:59;;;;;;;97.00;36.83;;;;;;;4.75;95.73;101801.41;1719163;83;27892;-64
2021/11/15 04:50:26;;;;;;;92.42;35.28;;;;;;;4.74;95.62;101802.98;1719479;83;25662;-64
2021/11/15 04:52:54;;;;;;;102.72;36.00;;;;;;;4.74;95.62;101798.42;1719367;83;27329;-65
2021/11/15 04:55:22;;;;;;;89.70;36.50;;;;;;;4.76;95.70;101807.58;1719010;83;25893;-65
2021/11/15 04:57:49;;;;;;;104.83;37.78;;;;;;;4.73;95.60;101806.16;1719366;83;25645;-67
2021/11/15 05:00:21;;;;;;;107.07;38.13;;;;;;;4.74;95.54;101812.36;1719494;83;25657;-64
2021/11/15 05:02:49;;;;;;;100.92;36.33;;;;;;;4.75;95.54;101816.66;1719198;83;25617;-64
2021/11/15 05:05:18;;;;;;;94.55;36.73;;;;;;;4.75;95.58;101815.31;1719532;83;27910;-65
2021/11/15 05:07:47;;;;;;;88.97;35.95;;;;;;;4.75;95.55;101823.36;1719299;83;25575;-65
2021/11/15 05:10:15;;;;;;;105.30;37.95;;;;;;;4.75;95.60;101820.17;1719345;83;25611;-65
2021/11/15 05:12:42;;;;;;;106.00;38.42;;;;;;;4.76;95.65;101827.68;1719341;83;26314;-64
2021/11/15 05:15:13;;;;;;;97.12;38.23;;;;;;;4.76;95.63;101828.48;1719381;83;25417;-64
2021/11/15 05:17:40;;;;;;;98.10;38.42;;;;;;;4.76;95.62;101824.47;1719118;83;27327;-64
2021/11/15 05:20:10;;;;;;;95.32;37.42;;;;;;;4.77;95.62;101831.47;1719353;83;25414;-64
2021/11/15 05:22:37;;;;;;;97.42;37.38;;;;;;;4.77;95.61;101829.33;1719537;83;25465;-66
2021/11/15 05:25:06;;;;;;;96.40;38.70;;;;;;;4.77;95.58;101835.50;1719063;83;26265;-64
2021/11/15 05:27:34;;;;;;;95.53;37.95;;;;;;;4.78;95.52;101840.32;1719482;83;25737;-65
2021/11/15 05:30:06;;;;;;;88.22;39.40;;;;;;;4.77;95.42;101839.52;1719387;83;27410;-64
2021/11/15 05:32:33;;;;;;;84.72;34.92;;;;;;;4.75;95.34;101840.28;1719110;83;25637;-64
2021/11/15 05:35:01;;;;;;;99.62;37.23;;;;;;;4.74;95.38;101838.63;1719413;83;25801;-64
2021/11/15 05:37:29;;;;;;;96.60;37.15;;;;;;;4.75;95.43;101844.80;1719421;83;25629;-64
2021/11/15 05:39:55;;;;;;;96.72;37.10;;;;;;;4.75;95.43;101844.80;1719254;83;25598;-64
2021/11/15 05:42:22;;;;;;;101.72;38.00;;;;;;;4.74;95.41;101843.99;1719434;83;27327;-64
2021/11/15 05:44:49;;;;;;;93.17;37.95;;;;;;;4.75;95.40;101846.98;1719268;83;25444;-65
2021/11/15 05:47:15;;;;;;;90.00;36.28;;;;;;;4.74;95.37;101849.36;1719161;83;25709;-65
2021/11/15 05:49:42;;;;;;;86.90;37.15;;;;;;;4.71;95.18;101859.19;1719423;83;25664;-65
2021/11/15 05:52:09;;;;;;;90.17;37.00;;;;;;;4.71;95.26;101859.19;1719418;83;25700;-65
2021/11/15 05:54:36;;;;;;;81.92;35.92;;;;;;;4.71;95.26;101859.73;1719096;83;28020;-65
2021/11/15 05:57:04;;;;;;;80.28;36.93;;;;;;;4.71;95.22;101860.53;1719259;83;25662;-65
2021/11/15 05:59:32;;;;;;;90.65;36.50;;;;;;;4.68;95.16;101868.53;1702309;83;25817;-64
2021/11/15 06:01:58;;;;;;;86.10;35.40;;;;;;;4.71;95.21;101877.96;1719080;83;25674;-64
2021/11/15 06:04:25;;;;;;;89.42;35.88;;;;;;;4.70;95.20;101879.53;1719423;83;25420;-65
2021/11/15 06:06:52;;;;;;;84.85;37.08;;;;;;;4.68;95.12;101882.44;1719399;83;27284;-65
2021/11/15 06:09:18;;;;;;;83.25;35.10;;;;;;;4.68;95.22;101885.11;1719084;83;25617;-65
2021/11/15 06:11:46;;;;;;;83.80;37.25;;;;;;;4.68;95.24;101886.45;1663955;85;25664;-65
2021/11/15 06:14:15;;;;;;;87.17;39.48;;;;;;;4.67;95.17;101888.86;1681129;85;25708;-65
2021/11/15 06:16:42;;;;;;;82.65;37.20;;;;;;;4.65;94.99;101893.64;1684400;85;25553;-65
2021/11/15 06:19:09;;;;;;;82.37;35.05;;;;;;;4.65;95.14;101894.98;1655430;86;27366;-64
2021/11/15 06:21:36;;;;;;;80.57;34.63;;;;;;;4.64;95.16;101898.70;1684547;85;25584;-65
2021/11/15 06:24:04;;;;;;;83.60;35.70;;;;;;;4.62;94.96;101897.58;1655226;86;26194;-65
2021/11/15 06:26:33;;;;;;;78.95;36.30;;;;;;;4.63;95.16;101903.75;1684441;85;25686;-65
2021/11/15 06:29:00;;;;;;;77.92;34.38;;;;;;;4.64;95.41;101906.73;1655521;86;25447;-64
2021/11/15 06:31:26;;;;;;;78.37;34.53;;;;;;;4.65;95.36;101905.70;1684282;85;27347;-64
2021/11/15 06:33:52;;;;;;;75.03;34.83;;;;;;;4.63;95.07;101907.77;1655334;86;25612;-64
2021/11/15 06:36:24;;;;;;;76.77;34.78;;;;;;;4.62;95.09;101911.52;1684530;85;25697;-64
2021/11/15 06:38:58;;;;;;;71.75;33.75;;;;;;;4.63;95.17;101905.93;1655132;86;25692;-64
2021/11/15 06:41:25;;;;;;;71.65;34.18;;;;;;;4.64;95.05;101909.42;1684569;85;25620;-64
2021/11/15 06:43:52;;;;;;;68.37;33.48;;;;;;;4.65;95.13;101911.06;1655410;86;28165;-64
2021/11/15 06:46:19;;;;;;;72.05;34.85;;;;;;;4.66;95.23;101912.68;1684241;85;25587;-64
2021/11/15 06:48:46;;;;;;;70.75;33.55;;;;;;;4.66;94.97;101912.68;1655326;86;25521;-65
2021/11/15 06:51:14;;;;;;;76.15;34.58;;;;;;;4.65;94.91;101912.41;1684566;85;26248;-65
2021/11/15 06:53:42;;;;;;;68.62;33.33;;;;;;;4.64;94.77;101918.80;1655176;86;25763;-65
2021/11/15 06:56:09;;;;;;;69.70;32.38;;;;;;;4.64;95.00;101918.80;1683347;85;27401;-65
2021/11/15 06:58:37;;;;;;;68.45;32.98;;;;;;;4.64;95.10;101918.27;1653018;86;25259;-65
2021/11/15 07:01:05;;;;;;;68.45;33.00;;;;;;;4.64;94.81;101922.81;1681990;85;25706;-65
2021/11/15 07:03:32;;;;;;;91.72;38.23;;;;;;;4.63;94.70;101919.83;1652990;86;25681;-66
2021/11/15 07:05:59;;;;;;;86.78;36.83;;;;;;;4.62;94.48;101926.26;1682055;85;25517;-63
2021/11/15 07:08:26;;;;;;;82.47;35.85;;;;;;;4.60;94.51;101926.48;1652852;86;27368;-63
2021/11/15 07:10:53;;;;;;;139.50;53.10;;;;;;;4.60;94.50;101933.19;1681950;85;25374;-64
2021/11/15 07:13:20;;;;;;;199.45;73.85;;;;;;;4.61;94.68;101925.95;1653098;86;25691;-64
2021/11/15 07:15:50;;;;;;;142.15;55.17;;;;;;;4.60;94.80;101925.14;1681753;85;25835;-63
2021/11/15 07:18:18;;;;;;;87.30;39.48;;;;;;;4.62;94.79;101922.23;1653047;86;25728;-63
2021/11/15 07:20:46;;;;;;;84.45;36.80;;;;;;;4.65;94.96;101930.63;1682013;85;27956;-64
2021/11/15 07:23:13;;;;;;;73.80;32.67;;;;;;;4.68;95.32;101932.86;1652752;86;25591;-64
2021/11/15 07:25:40;;;;;;;144.15;55.43;;;;;;;4.67;94.72;101933.89;1682035;85;25586;-65
2021/11/15 07:28:07;;;;;;;120.47;46.65;;;;;;;4.67;94.73;101940.59;1652867;86;26372;-65
2021/11/15 07:30:34;;;;;;;79.60;36.75;;;;;;;4.71;95.06;101930.77;1682083;85;25559;-64
2021/11/15 07:33:01;;;;;;;91.08;41.37;;;;;;;4.74;95.04;101930.31;1653134;86;27428;-64
2021/11/15 07:35:28;;;;;;;90.32;39.85;;;;;;;4.73;94.52;101932.16;1682370;85;25825;-65
2021/11/15 07:37:55;;;;;;;104.92;43.48;;;;;;;4.73;94.66;101932.69;1653107;86;25614;-65
2021/11/15 07:40:22;;;;;;;62.30;30.60;;;;;;;4.74;94.60;101927.09;1682324;85;25687;-65
2021/11/15 07:42:49;;;;;;;70.97;32.38;;;;;;;4.73;94.29;101923.30;1653388;86;25304;-65
2021/11/15 07:45:15;;;;;;;62.15;29.27;;;;;;;4.69;93.95;101922.95;1682236;85;27351;-65
2021/11/15 07:47:42;;;;;;;63.80;31.25;;;;;;;4.64;93.84;101920.95;1653346;86;25644;-65
2021/11/15 07:50:13;;;;;;;70.57;33.63;;;;;;;4.65;94.18;101928.48;1682431;85;25718;-65
2021/11/15 07:52:40;;;;;;;70.47;32.08;;;;;;;4.64;94.12;101925.50;1653073;86;26263;-65
2021/11/15 07:55:13;;;;;;;90.60;40.48;;;;;;;4.64;94.02;101924.16;1682452;85;25629;-65
2021/11/15 07:57:41;;;;;;;65.28;31.68;;;;;;;4.67;94.39;101931.75;1624648;86;27933;-65
2021/11/15 08:00:12;;;;;;;65.25;31.73;;;;;;;4.66;94.10;101934.93;1637303;86;25818;-65
2021/11/15 08:02:40;;;;;;;65.50;31.20;;;;;;;4.68;94.33;101937.38;1667945;85;25783;-64
2021/11/15 08:05:09;;;;;;;72.05;32.95;;;;;;;4.68;94.14;101940.91;1664578;84;25787;-65
2021/11/15 08:07:36;;;;;;;66.90;31.02;;;;;;;4.70;94.26;101933.98;1666116;85;25749;-65
2021/11/15 08:10:09;;;;;;;68.12;31.25;;;;;;;4.71;94.13;101940.14;1663193;85;28137;-65
2021/11/15 08:12:41;;;;;;;66.00;31.45;;;;;;;4.73;94.31;101942.06;1658562;85;25821;-65
2021/11/15 08:15:12;;;;;;;65.87;32.83;;;;;;;4.73;94.07;101948.23;1661612;85;25820;-65
2021/11/15 08:17:43;;;;;;;64.05;30.48;;;;;;;4.74;94.21;101940.50;1661067;85;25631;-64
2021/11/15 08:20:19;;;;;;;65.72;32.13;;;;;;;4.78;94.41;101943.53;1657850;85;25689;-65
2021/11/15 08:22:49;;;;;;;63.35;31.17;;;;;;;4.80;94.20;101946.80;1642619;87;27965;-66
2021/11/15 08:25:49;;;;;;;;;;;;;;;4.80;94.16;101943.62;1645031;86;26335;-63
2021/11/15 08:28:16;;;;;;;57.38;29.18;;;;;;;4.83;94.19;101942.33;1642637;85;25438;-64
2021/11/15 08:30:43;;;;;;;62.62;30.97;;;;;;;4.84;94.04;101943.97;1642481;86;25729;-63
2021/11/15 08:33:13;;;;;;;64.42;29.20;;;;;;;4.82;93.83;101940.71;1642714;87;25580;-63
2021/11/15 08:35:40;;;;;;;63.50;31.95;;;;;;;4.84;93.87;101947.46;1642710;87;27395;-63
2021/11/15 08:38:48;;;;;;;58.10;30.12;;;;;;;4.85;93.83;101949.11;1642385;87;25569;-63
2021/11/15 08:41:20;;;;;;;61.63;29.87;;;;;;;4.83;93.52;101951.70;1601832;87;25549;-63
2021/11/15 08:43:47;;;;;;;60.50;30.60;;;;;;;4.83;93.38;101946.34;1596984;89;25645;-63
2021/11/15 08:46:19;;;;;;;64.35;33.23;;;;;;;4.83;93.51;101940.45;1597590;89;25679;-63
2021/11/15 08:48:46;;;;;;;64.15;31.52;;;;;;;4.83;93.37;101955.20;1602103;89;26611;-63
2021/11/15 08:51:16;;;;;;;61.37;30.15;;;;;;;4.84;93.46;101947.46;1601290;87;25976;-63
2021/11/15 08:53:42;;;;;;;61.73;30.55;;;;;;;4.85;93.42;101945.08;1602189;89;25526;-63
2021/11/15 08:56:10;;;;;;;61.45;29.82;;;;;;;4.84;93.03;101946.66;1604074;88;25767;-63
2021/11/15 08:58:38;;;;;;;58.95;29.95;;;;;;;4.85;93.12;101945.08;1612211;89;25515;-65
2021/11/15 09:01:07;;;;;;;56.95;28.75;;;;;;;4.87;93.08;101942.17;1612349;89;27328;-64
2021/11/15 09:03:37;;;;;;;62.70;31.23;;;;;;;4.88;93.05;101936.28;1612500;89;25649;-64
2021/11/15 09:06:06;;;;;;;56.35;30.15;;;;;;;4.90;93.21;101938.20;1612246;89;25803;-64
2021/11/15 09:08:34;;;;;;;54.25;29.45;;;;;;;4.93;93.16;101936.41;1612547;89;25788;-65
2021/11/15 09:11:03;;;;;;;60.45;29.80;;;;;;;4.93;92.91;101939.89;1612310;89;25688;-64
2021/11/15 09:13:31;;;;;;;60.85;30.75;;;;;;;4.96;93.08;101941.31;1611959;89;27319;-64
2021/11/15 09:15:58;;;;;;;60.92;31.37;;;;;;;4.98;92.94;101941.89;1657691;82;25759;-64
2021/11/15 09:18:26;;;;;;;59.15;30.65;;;;;;;5.01;93.15;101943.59;1702091;83;25764;-63
2021/11/15 09:20:54;;;;;;;56.58;29.55;;;;;;;5.04;93.03;101936.96;1709233;83;26007;-64
2021/11/15 09:23:20;;;;;;;59.88;30.23;;;;;;;5.08;92.72;101936.78;1709764;83;25701;-64
2021/11/15 09:25:47;;;;;;;58.15;30.37;;;;;;;5.07;92.54;101933.79;1709606;83;27299;-64
2021/11/15 09:28:13;;;;;;;54.15;29.12;;;;;;;5.09;92.57;101937.59;1709315;83;25731;-64
2021/11/15 09:30:42;;;;;;;61.20;30.80;;;;;;;5.09;92.14;101942.45;1709749;83;25455;-64
2021/11/15 09:33:11;;;;;;;54.90;30.00;;;;;;;5.08;91.99;101942.67;1709974;83;25403;-64
2021/11/15 09:35:44;;;;;;;61.75;29.05;;;;;;;5.06;91.98;101944.25;1709414;83;25771;-65
2021/11/15 09:38:07;;;;;;;55.98;30.55;;;;;;;5.09;92.12;101941.61;1709198;83;27331;-65
2021/11/15 09:40:34;;;;;;;57.30;28.65;;;;;;;5.11;92.22;101937.66;1709469;83;25466;-65
2021/11/15 09:43:01;;;;;;;61.77;30.45;;;;;;;5.12;92.02;101942.49;1709330;83;25924;-65
2021/11/15 09:45:28;;;;;;;54.55;28.90;;;;;;;5.11;91.75;101944.37;1709624;83;25682;-65
2021/11/15 09:47:58;;;;;;;59.88;31.12;;;;;;;5.12;91.96;101944.64;1709668;83;25691;-65
2021/11/15 09:50:25;;;;;;;;;;;;;;;5.16;91.98;101943.65;1711892;83;26491;-67
2021/11/15 09:52:52;;;;;;;52.88;28.92;;;;;;;5.18;91.68;101941.58;1709468;83;25642;-69
2021/11/15 09:55:21;;;;;;;54.98;28.85;;;;;;;5.19;91.99;101944.03;1709593;83;25403;-69
2021/11/15 09:57:50;;;;;;;61.50;31.42;;;;;;;5.22;91.84;101947.56;1698598;83;26272;-69
2021/11/15 10:00:23;;;;;;;58.25;30.27;;;;;;;5.21;91.57;101941.09;1695497;84;25718;-68
2021/11/15 10:02:53;;;;;;;57.80;30.25;;;;;;;5.23;91.69;101946.53;1692832;84;27433;-68
2021/11/15 10:05:20;;;;;;;57.48;30.00;;;;;;;5.22;91.26;101942.73;1692537;84;25606;-69
2021/11/15 10:07:55;;;;;;;56.25;28.77;;;;;;;5.22;91.46;101942.20;1692783;84;25668;-69
2021/11/15 10:10:55;;;;;;;56.10;29.85;;;;;;;5.26;91.48;101940.40;1692558;84;25756;-67
2021/11/15 10:13:29;;;;;;;52.60;29.82;;;;;;;5.23;90.99;101940.36;1690732;84;25730;-68
2021/11/15 10:16:22;;;;;;;58.78;28.67;;;;;;;5.20;90.81;101935.45;1692795;84;26744;-68
2021/11/15 10:18:57;;;;;;;52.53;27.75;;;;;;;5.18;90.83;101928.97;1692339;84;27158;-68
2021/11/15 10:21:36;;;;;;;55.05;27.25;;;;;;;5.18;90.94;101926.82;1692446;84;25694;-69
2021/11/15 10:24:13;;;;;;;52.53;27.52;;;;;;;5.18;90.81;101929.50;1666425;85;25727;-69
2021/11/15 10:26:52;;;;;;;49.33;28.15;;;;;;;5.17;91.04;101936.72;1678144;84;25410;-68
2021/11/15 10:29:37;;;;;;;57.38;27.75;;;;;;;5.19;91.01;101934.64;1692784;84;27516;-67
2021/11/15 10:32:11;;;;;;;50.58;27.48;;;;;;;5.20;90.89;101940.28;1666506;85;25905;-68
2021/11/15 10:34:54;;;;;;;55.30;28.52;;;;;;;5.21;90.93;101941.09;1677067;84;25610;-67
2021/11/15 10:37:27;;;;;;;54.10;27.82;;;;;;;5.22;90.89;101937.37;1684928;84;25698;-67
2021/11/15 10:40:15;;;;;;;48.38;26.82;;;;;;;5.22;91.12;101942.20;1692826;84;25751;-67
2021/11/15 10:42:46;;;;;;;52.85;28.27;;;;;;;5.27;91.17;101940.17;1692791;84;27453;-68
2021/11/15 10:45:20;;;;;;;50.35;26.37;;;;;;;5.31;91.20;101939.17;1693398;84;25633;-68
2021/11/15 10:47:58;;;;;;;48.68;26.05;;;;;;;5.31;90.74;101945.88;1683873;84;25528;-68
2021/11/15 10:50:45;;;;;;;49.10;26.30;;;;;;;5.31;90.53;101940.52;1684681;84;27773;-68
2021/11/15 10:53:22;;;;;;;48.80;25.30;;;;;;;5.31;90.56;101937.83;1692787;84;25632;-69
2021/11/15 10:56:13;;;;;;;51.98;25.20;;;;;;;5.32;90.63;101940.82;1692040;84;27346;-68
2021/11/15 10:58:40;;;;;;;45.55;24.15;;;;;;;5.33;90.63;101954.51;1709778;83;25915;-69
2021/11/15 11:01:07;;;;;;;53.93;26.40;;;;;;;5.31;90.21;101944.04;1719464;83;25735;-68
2021/11/15 11:03:37;;;;;;;48.50;25.08;;;;;;;5.31;90.24;101941.86;1712129;83;26235;-68
2021/11/15 11:06:08;;;;;;;44.50;24.90;;;;;;;5.33;90.53;101939.25;1709679;83;26091;-68
2021/11/15 11:08:42;;;;;;;48.55;25.00;;;;;;;5.36;90.62;101941.98;1709717;83;27377;-68
2021/11/15 11:11:17;;;;;;;46.02;24.65;;;;;;;5.36;89.94;101940.63;1709662;83;25789;-68
2021/11/15 11:13:57;;;;;;;46.30;24.82;;;;;;;5.32;89.95;101936.27;1708660;83;26175;-68
2021/11/15 11:16:47;;;;;;;48.13;26.27;;;;;;;5.32;89.93;101930.09;1709797;83;34731;-68
2021/11/15 11:19:37;;;;;;;;;;;;;;;5.31;89.95;101929.78;1712152;83;25709;-67
2021/11/15 11:27:35;;;;;;;44.20;24.15;;;;;;;5.37;90.45;101930.20;1709422;83;25601;-68
2021/11/15 11:30:08;;;;;;;45.43;23.42;;;;;;;5.39;90.14;101923.53;1709494;83;25710;-68
2021/11/15 11:32:35;;;;;;;48.95;25.00;;;;;;;5.38;89.81;101930.48;1709623;83;25623;-68